createdAt,value
2018-01-28T00:00:28.139Z,87.57
2018-01-28T00:01:28.125Z,87.57
2018-01-28T00:02:28.119Z,88.42
2018-01-28T00:03:28.100Z,87.19
2018-01-28T00:04:28.088Z,87.57
2018-01-28T00:05:28.073Z,87.57
2018-01-28T00:06:28.067Z,88.04
2018-01-28T00:07:28.048Z,88.13
2018-01-28T00:08:28.046Z,88.33
2018-01-28T00:09:28.025Z,88.04
2018-01-28T00:10:28.012Z,87.85
2018-01-28T00:11:27.999Z,88.04
2018-01-28T00:12:27.989Z,87.85
2018-01-28T00:13:27.970Z,87.85
2018-01-28T00:14:27.958Z,87.47
2018-01-28T00:15:27.950Z,87.66
2018-01-28T00:16:27.936Z,89.75
2018-01-28T00:17:27.920Z,88.23
2018-01-28T00:18:27.910Z,88.52
2018-01-28T00:19:27.892Z,88.13
2018-01-28T00:20:27.880Z,88.33
2018-01-28T00:21:27.865Z,88.52
2018-01-28T00:22:27.860Z,88.33
2018-01-28T00:23:27.843Z,88.42
2018-01-28T00:24:27.825Z,89.00
2018-01-28T00:25:27.815Z,88.42
2018-01-28T00:26:27.801Z,88.04
2018-01-28T00:27:27.791Z,88.61
2018-01-28T00:28:27.782Z,88.52
2018-01-28T00:29:27.761Z,91.47
2018-01-28T00:30:27.749Z,88.80
2018-01-28T00:31:27.749Z,89.75
2018-01-28T00:32:27.738Z,87.76
2018-01-28T00:33:27.712Z,87.57
2018-01-28T00:34:27.697Z,88.42
2018-01-28T00:35:27.690Z,88.42
2018-01-28T00:36:27.682Z,89.94
2018-01-28T00:37:27.664Z,87.95
2018-01-28T00:38:27.643Z,88.90
2018-01-28T00:39:27.635Z,88.42
2018-01-28T00:40:27.622Z,90.23
2018-01-28T00:41:27.603Z,88.42
2018-01-28T00:42:27.592Z,89.94
2018-01-28T00:43:27.580Z,88.71
2018-01-28T00:44:27.572Z,87.38
2018-01-28T00:45:27.552Z,87.47
2018-01-28T00:46:27.542Z,87.85
2018-01-28T00:47:27.529Z,87.76
2018-01-28T00:48:27.512Z,87.47
2018-01-28T00:49:27.508Z,87.66
2018-01-28T00:50:27.492Z,87.66
2018-01-28T00:51:27.476Z,87.28
2018-01-28T00:52:27.461Z,87.66
2018-01-28T00:53:27.452Z,87.95
2018-01-28T00:54:27.435Z,88.13
2018-01-28T00:55:27.428Z,88.04
2018-01-28T00:56:27.443Z,88.33
2018-01-28T00:57:27.393Z,88.61
2018-01-28T00:58:27.384Z,88.42
2018-01-28T00:59:27.368Z,88.42
2018-01-28T01:00:27.356Z,88.80
2018-01-28T01:01:27.341Z,88.80
2018-01-28T01:02:27.334Z,89.75
2018-01-28T01:03:27.317Z,89.66
2018-01-28T01:04:27.304Z,88.90
2018-01-28T01:05:27.292Z,88.80
2018-01-28T01:06:27.281Z,88.61
2018-01-28T01:07:27.271Z,89.66
2018-01-28T01:08:27.253Z,88.90
2018-01-28T01:09:27.239Z,89.18
2018-01-28T01:10:27.232Z,90.52
2018-01-28T01:11:27.213Z,91.75
2018-01-28T01:12:27.209Z,89.94
2018-01-28T01:13:27.184Z,89.56
2018-01-28T01:14:27.169Z,89.85
2018-01-28T01:15:27.157Z,90.04
2018-01-28T01:16:27.145Z,89.56
2018-01-28T01:17:27.175Z,89.94
2018-01-28T01:18:27.123Z,89.75
2018-01-28T01:19:27.104Z,89.28
2018-01-28T01:20:27.094Z,89.47
2018-01-28T01:21:27.079Z,89.66
2018-01-28T01:22:27.074Z,91.08
2018-01-28T01:23:27.054Z,91.66
2018-01-28T01:24:27.042Z,89.85
2018-01-28T01:25:27.025Z,89.37
2018-01-28T01:26:27.015Z,89.00
2018-01-28T01:27:27.001Z,89.66
2018-01-28T01:28:26.990Z,89.37
2018-01-28T01:29:26.978Z,89.85
2018-01-28T01:30:26.966Z,89.28
2018-01-28T01:31:26.949Z,89.18
2018-01-28T01:32:26.936Z,89.28
2018-01-28T01:33:26.924Z,89.28
2018-01-28T01:34:26.911Z,89.56
2018-01-28T01:35:26.901Z,89.56
2018-01-28T01:36:26.882Z,89.56
2018-01-28T01:37:26.867Z,89.37
2018-01-28T01:38:26.857Z,90.04
2018-01-28T01:39:26.841Z,89.94
2018-01-28T01:40:26.829Z,90.42
2018-01-28T01:41:26.821Z,90.42
2018-01-28T01:42:26.809Z,90.42
2018-01-28T01:43:26.789Z,89.66
2018-01-28T01:44:26.776Z,89.85
2018-01-28T01:45:26.763Z,90.42
2018-01-28T01:46:26.750Z,92.13
2018-01-28T01:47:26.738Z,90.99
2018-01-28T01:48:26.733Z,90.42
2018-01-28T01:49:26.717Z,90.23
2018-01-28T01:50:26.703Z,89.94
2018-01-28T01:51:26.684Z,89.94
2018-01-28T01:52:26.672Z,90.89
2018-01-28T01:53:26.657Z,89.94
2018-01-28T01:54:26.650Z,89.66
2018-01-28T01:55:26.640Z,89.56
2018-01-28T01:56:26.620Z,90.23
2018-01-28T01:57:26.613Z,89.94
2018-01-28T01:58:26.593Z,89.75
2018-01-28T01:59:26.582Z,89.56
2018-01-28T02:00:26.567Z,89.47
2018-01-28T02:01:26.564Z,89.75
2018-01-28T02:02:26.546Z,89.47
2018-01-28T02:03:26.532Z,89.56
2018-01-28T02:04:26.513Z,90.33
2018-01-28T02:05:26.502Z,91.75
2018-01-28T02:06:26.485Z,89.75
2018-01-28T02:07:26.479Z,89.37
2018-01-28T02:08:26.466Z,89.09
2018-01-28T02:09:26.447Z,90.52
2018-01-28T02:10:26.435Z,90.61
2018-01-28T02:11:26.428Z,89.09
2018-01-28T02:12:26.409Z,88.23
2018-01-28T02:13:26.392Z,88.52
2018-01-28T02:14:26.381Z,89.66
2018-01-28T02:15:26.370Z,89.18
2018-01-28T02:16:26.356Z,88.42
2018-01-28T02:17:26.347Z,88.42
2018-01-28T02:18:26.327Z,87.76
2018-01-28T02:19:26.321Z,87.47
2018-01-28T02:20:26.303Z,88.52
2018-01-28T02:21:26.305Z,88.23
2018-01-28T02:22:26.281Z,87.95
2018-01-28T02:23:26.262Z,88.42
2018-01-28T02:24:26.249Z,87.95
2018-01-28T02:25:26.234Z,87.38
2018-01-28T02:26:26.225Z,88.13
2018-01-28T02:27:26.209Z,88.33
2018-01-28T02:28:26.197Z,87.57
2018-01-28T02:29:26.186Z,87.95
2018-01-28T02:30:26.170Z,87.47
2018-01-28T02:31:26.162Z,87.38
2018-01-28T02:32:26.142Z,87.47
2018-01-28T02:33:26.128Z,90.33
2018-01-28T02:34:26.115Z,88.33
2018-01-28T02:35:26.109Z,87.47
2018-01-28T02:36:26.091Z,87.28
2018-01-28T02:37:26.075Z,87.57
2018-01-28T02:38:26.063Z,87.47
2018-01-28T02:39:26.060Z,88.52
2018-01-28T02:40:26.037Z,87.47
2018-01-28T02:41:26.026Z,87.43
2018-01-28T02:42:26.011Z,86.90
2018-01-28T02:43:25.997Z,87.05
2018-01-28T02:44:25.995Z,88.00
2018-01-28T02:45:25.970Z,88.04
2018-01-28T02:46:25.966Z,88.33
2018-01-28T02:47:25.945Z,89.04
2018-01-28T02:48:25.933Z,87.52
2018-01-28T02:49:25.924Z,87.90
2018-01-28T02:50:25.903Z,87.95
2018-01-28T02:51:25.897Z,88.04
2018-01-28T02:52:25.879Z,87.71
2018-01-28T02:53:25.863Z,87.90
2018-01-28T02:54:25.852Z,87.66
2018-01-28T02:55:25.836Z,87.05
2018-01-28T02:56:25.824Z,87.66
2018-01-28T02:57:25.815Z,87.09
2018-01-28T02:58:25.796Z,87.95
2018-01-28T02:59:25.789Z,88.19
2018-01-28T03:00:25.777Z,87.28
2018-01-28T03:01:25.759Z,86.57
2018-01-28T03:02:25.743Z,86.14
2018-01-28T03:03:25.731Z,86.29
2018-01-28T03:04:25.718Z,87.66
2018-01-28T03:05:25.704Z,86.99
2018-01-28T03:06:25.693Z,87.95
2018-01-28T03:07:25.689Z,86.61
2018-01-28T03:08:25.664Z,85.38
2018-01-28T03:09:25.651Z,85.47
2018-01-28T03:10:25.641Z,85.34
2018-01-28T03:11:25.628Z,85.38
2018-01-28T03:12:25.610Z,85.38
2018-01-28T03:13:25.601Z,85.57
2018-01-28T03:14:25.584Z,85.43
2018-01-28T03:15:25.572Z,85.57
2018-01-28T03:16:25.600Z,85.91
2018-01-28T03:17:25.547Z,86.29
2018-01-28T03:18:25.545Z,87.66
2018-01-28T03:19:25.519Z,87.81
2018-01-28T03:20:25.510Z,87.47
2018-01-28T03:21:25.494Z,87.28
2018-01-28T03:22:25.526Z,85.95
2018-01-28T03:23:25.463Z,84.72
2018-01-28T03:24:25.449Z,84.62
2018-01-28T03:25:25.437Z,85.38
2018-01-28T03:26:25.429Z,87.38
2018-01-28T03:27:25.413Z,87.47
2018-01-28T03:28:25.399Z,88.90
2018-01-28T03:29:25.392Z,86.52
2018-01-28T03:30:25.371Z,87.47
2018-01-28T03:31:25.362Z,85.38
2018-01-28T03:32:25.345Z,84.81
2018-01-28T03:33:25.328Z,84.62
2018-01-28T03:34:25.325Z,86.43
2018-01-28T03:35:25.309Z,87.57
2018-01-28T03:36:25.291Z,86.14
2018-01-28T03:37:25.285Z,84.52
2018-01-28T03:38:25.268Z,85.76
2018-01-28T03:39:25.253Z,87.85
2018-01-28T03:40:25.242Z,87.76
2018-01-28T03:41:25.222Z,86.33
2018-01-28T03:42:25.209Z,85.19
2018-01-28T03:43:25.201Z,83.76
2018-01-28T03:44:25.188Z,85.76
2018-01-28T03:45:25.167Z,84.33
2018-01-28T03:46:25.160Z,87.28
2018-01-28T03:47:25.143Z,86.24
2018-01-28T03:48:25.128Z,84.91
2018-01-28T03:49:25.114Z,83.95
2018-01-28T03:50:25.104Z,84.81
2018-01-28T03:51:25.088Z,88.13
2018-01-28T03:52:25.076Z,86.24
2018-01-28T03:53:25.069Z,85.10
2018-01-28T03:54:25.054Z,84.62
2018-01-28T03:55:25.033Z,84.43
2018-01-28T03:56:25.026Z,87.28
2018-01-28T03:57:25.012Z,85.38
2018-01-28T03:58:24.994Z,85.19
2018-01-28T03:59:24.980Z,85.95
2018-01-28T04:00:24.966Z,85.38
2018-01-28T04:01:24.952Z,86.14
2018-01-28T04:02:24.940Z,86.33
2018-01-28T04:03:24.926Z,85.86
2018-01-28T04:04:24.918Z,87.38
2018-01-28T04:05:24.905Z,87.57
2018-01-28T04:06:24.887Z,85.38
2018-01-28T04:07:24.875Z,84.81
2018-01-28T04:08:24.859Z,84.52
2018-01-28T04:09:24.847Z,85.95
2018-01-28T04:10:24.832Z,85.28
2018-01-28T04:11:24.816Z,84.72
2018-01-28T04:12:24.805Z,85.19
2018-01-28T04:13:24.799Z,87.09
2018-01-28T04:14:24.776Z,86.33
2018-01-28T04:15:24.764Z,89.37
2018-01-28T04:16:24.757Z,87.47
2018-01-28T04:17:24.742Z,87.57
2018-01-28T04:18:24.734Z,87.19
2018-01-28T04:19:24.715Z,89.37
2018-01-28T04:20:24.697Z,87.09
2018-01-28T04:21:24.681Z,88.42
2018-01-28T04:22:24.672Z,87.95
2018-01-28T04:23:24.654Z,88.33
2018-01-28T04:24:24.645Z,85.66
2018-01-28T04:25:24.627Z,87.66
2018-01-28T04:26:24.623Z,86.80
2018-01-28T04:27:24.602Z,86.33
2018-01-28T04:28:24.586Z,85.86
2018-01-28T04:29:24.572Z,85.47
2018-01-28T04:30:24.559Z,85.34
2018-01-28T04:31:24.546Z,85.86
2018-01-28T04:32:24.540Z,87.62
2018-01-28T04:33:24.518Z,86.90
2018-01-28T04:34:24.510Z,86.33
2018-01-28T04:35:24.491Z,86.00
2018-01-28T04:36:24.484Z,86.00
2018-01-28T04:37:24.465Z,87.81
2018-01-28T04:38:24.450Z,86.86
2018-01-28T04:39:24.441Z,87.34
2018-01-28T04:40:24.425Z,89.04
2018-01-28T04:41:24.409Z,87.28
2018-01-28T04:42:24.395Z,87.62
2018-01-28T04:43:24.384Z,86.86
2018-01-28T04:44:24.375Z,88.09
2018-01-28T04:45:24.355Z,88.42
2018-01-28T04:46:24.341Z,89.33
2018-01-28T04:47:24.326Z,87.52
2018-01-28T04:48:24.320Z,88.23
2018-01-28T04:49:24.303Z,88.61
2018-01-28T04:50:24.286Z,87.76
2018-01-28T04:51:24.281Z,87.38
2018-01-28T04:52:24.261Z,86.61
2018-01-28T04:53:24.247Z,88.71
2018-01-28T04:54:24.237Z,87.05
2018-01-28T04:55:24.219Z,86.80
2018-01-28T04:56:24.205Z,88.04
2018-01-28T04:57:24.197Z,87.05
2018-01-28T04:58:24.183Z,87.28
2018-01-28T04:59:24.163Z,87.95
2018-01-28T05:00:24.150Z,87.09
2018-01-28T05:01:24.142Z,85.57
2018-01-28T05:02:24.121Z,86.00
2018-01-28T05:03:24.115Z,86.47
2018-01-28T05:04:24.095Z,87.05
2018-01-28T05:05:24.080Z,87.34
2018-01-28T05:06:24.070Z,86.10
2018-01-28T05:07:24.054Z,86.76
2018-01-28T05:08:24.041Z,86.95
2018-01-28T05:09:24.025Z,87.81
2018-01-28T05:10:24.011Z,86.86
2018-01-28T05:11:23.999Z,87.43
2018-01-28T05:12:23.989Z,87.43
2018-01-28T05:13:23.978Z,88.00
2018-01-28T05:14:23.962Z,87.81
2018-01-28T05:15:23.942Z,89.80
2018-01-28T05:16:23.931Z,88.00
2018-01-28T05:17:23.926Z,87.05
2018-01-28T05:18:23.904Z,86.86
2018-01-28T05:19:23.888Z,87.34
2018-01-28T05:20:23.877Z,87.52
2018-01-28T05:21:23.867Z,87.52
2018-01-28T05:22:23.846Z,87.62
2018-01-28T05:23:23.838Z,89.52
2018-01-28T05:24:23.822Z,89.04
2018-01-28T05:25:23.803Z,87.81
2018-01-28T05:26:23.795Z,87.34
2018-01-28T05:27:23.780Z,87.62
2018-01-28T05:28:23.765Z,87.71
2018-01-28T05:29:23.755Z,87.24
2018-01-28T05:30:23.742Z,88.00
2018-01-28T05:31:23.722Z,87.71
2018-01-28T05:32:23.711Z,87.62
2018-01-28T05:33:23.694Z,87.71
2018-01-28T05:34:23.685Z,88.47
2018-01-28T05:35:23.674Z,90.19
2018-01-28T05:36:23.654Z,87.43
2018-01-28T05:37:23.653Z,88.76
2018-01-28T05:38:23.627Z,87.62
2018-01-28T05:39:23.611Z,87.43
2018-01-28T05:40:23.600Z,88.09
2018-01-28T05:41:23.585Z,87.52
2018-01-28T05:42:23.572Z,86.67
2018-01-28T05:43:23.562Z,87.62
2018-01-28T05:44:23.551Z,88.38
2018-01-28T05:45:23.534Z,87.90
2018-01-28T05:46:23.521Z,86.38
2018-01-28T05:47:23.503Z,86.57
2018-01-28T05:48:23.488Z,86.38
2018-01-28T05:49:23.481Z,86.95
2018-01-28T05:50:23.461Z,86.00
2018-01-28T05:51:23.449Z,85.62
2018-01-28T05:52:23.434Z,85.62
2018-01-28T05:53:23.427Z,86.29
2018-01-28T05:54:23.410Z,87.52
2018-01-28T05:55:23.401Z,86.67
2018-01-28T05:56:23.380Z,86.29
2018-01-28T05:57:23.374Z,87.81
2018-01-28T05:58:23.355Z,89.04
2018-01-28T05:59:23.344Z,85.91
2018-01-28T06:00:23.324Z,87.43
2018-01-28T06:01:23.315Z,87.71
2018-01-28T06:02:23.296Z,87.52
2018-01-28T06:03:23.283Z,86.67
2018-01-28T06:04:23.270Z,87.52
2018-01-28T06:05:23.256Z,89.14
2018-01-28T06:06:23.252Z,86.76
2018-01-28T06:07:23.229Z,88.28
2018-01-28T06:08:23.220Z,88.52
2018-01-28T06:09:23.206Z,87.76
2018-01-28T06:10:23.195Z,86.00
2018-01-28T06:11:23.184Z,85.43
2018-01-28T06:12:23.159Z,88.80
2018-01-28T06:13:23.151Z,88.80
2018-01-28T06:14:23.134Z,87.66
2018-01-28T06:15:23.120Z,88.42
2018-01-28T06:16:23.104Z,85.86
2018-01-28T06:17:23.096Z,84.67
2018-01-28T06:18:23.076Z,85.34
2018-01-28T06:19:23.069Z,86.61
2018-01-28T06:20:23.061Z,85.43
2018-01-28T06:21:23.038Z,86.19
2018-01-28T06:22:23.025Z,86.00
2018-01-28T06:23:23.012Z,85.34
2018-01-28T06:24:22.995Z,87.43
2018-01-28T06:25:22.985Z,87.24
2018-01-28T06:26:22.978Z,86.95
2018-01-28T06:27:22.953Z,86.57
2018-01-28T06:28:22.940Z,87.43
2018-01-28T06:29:22.925Z,89.33
2018-01-28T06:30:22.912Z,87.14
2018-01-28T06:31:22.899Z,87.34
2018-01-28T06:32:22.897Z,87.24
2018-01-28T06:33:22.894Z,88.00
2018-01-28T06:34:22.872Z,87.90
2018-01-28T06:35:22.859Z,86.00
2018-01-28T06:36:22.843Z,85.53
2018-01-28T06:37:22.822Z,86.47
2018-01-28T06:38:22.807Z,87.71
2018-01-28T06:39:22.797Z,88.47
2018-01-28T06:40:22.784Z,85.91
2018-01-28T06:41:22.788Z,85.62
2018-01-28T06:42:22.761Z,85.62
2018-01-28T06:43:22.746Z,85.81
2018-01-28T06:44:22.731Z,87.52
2018-01-28T06:45:22.709Z,85.91
2018-01-28T06:46:22.697Z,85.81
2018-01-28T06:47:22.689Z,86.57
2018-01-28T06:48:22.672Z,86.29
2018-01-28T06:49:22.650Z,87.43
2018-01-28T06:50:22.638Z,86.76
2018-01-28T06:51:22.628Z,86.67
2018-01-28T06:52:22.610Z,87.24
2018-01-28T06:53:22.599Z,87.62
2018-01-28T06:54:22.584Z,87.52
2018-01-28T06:55:22.570Z,89.04
2018-01-28T06:56:22.554Z,86.00
2018-01-28T06:57:22.547Z,85.91
2018-01-28T06:58:22.532Z,85.72
2018-01-28T06:59:22.514Z,85.53
2018-01-28T07:00:22.508Z,85.72
2018-01-28T07:01:22.484Z,85.91
2018-01-28T07:02:22.471Z,86.10
2018-01-28T07:03:22.458Z,89.04
2018-01-28T07:04:22.442Z,86.67
2018-01-28T07:05:22.428Z,89.33
2018-01-28T07:06:22.422Z,86.57
2018-01-28T07:07:22.412Z,86.67
2018-01-28T07:08:22.387Z,87.62
2018-01-28T07:09:22.379Z,86.47
2018-01-28T07:10:22.371Z,85.05
2018-01-28T07:11:22.355Z,85.15
2018-01-28T07:12:22.330Z,85.34
2018-01-28T07:13:22.318Z,87.14
2018-01-28T07:14:22.305Z,85.34
2018-01-28T07:15:22.298Z,85.34
2018-01-28T07:16:22.277Z,85.43
2018-01-28T07:17:22.262Z,86.38
2018-01-28T07:18:22.256Z,86.67
2018-01-28T07:19:22.243Z,86.00
2018-01-28T07:20:22.228Z,87.24
2018-01-28T07:21:22.215Z,87.34
2018-01-28T07:22:22.195Z,87.14
2018-01-28T07:23:22.181Z,86.76
2018-01-28T07:24:22.167Z,85.43
2018-01-28T07:25:22.158Z,85.43
2018-01-28T07:26:22.144Z,86.29
2018-01-28T07:27:22.134Z,87.52
2018-01-28T07:28:22.121Z,86.47
2018-01-28T07:29:22.099Z,85.43
2018-01-28T07:30:22.085Z,86.19
2018-01-28T07:31:22.077Z,85.62
2018-01-28T07:32:22.063Z,85.34
2018-01-28T07:33:22.046Z,86.19
2018-01-28T07:34:22.036Z,86.10
2018-01-28T07:35:22.023Z,85.91
2018-01-28T07:36:22.010Z,85.91
2018-01-28T07:37:21.991Z,86.47
2018-01-28T07:38:21.975Z,86.19
2018-01-28T07:39:21.962Z,86.10
2018-01-28T07:40:21.950Z,85.91
2018-01-28T07:41:21.935Z,86.38
2018-01-28T07:42:21.922Z,86.00
2018-01-28T07:43:21.914Z,85.91
2018-01-28T07:44:21.901Z,86.19
2018-01-28T07:45:21.882Z,87.05
2018-01-28T07:46:21.868Z,86.95
2018-01-28T07:47:21.860Z,86.19
2018-01-28T07:48:21.841Z,85.91
2018-01-28T07:49:21.835Z,86.00
2018-01-28T07:50:21.814Z,86.00
2018-01-28T07:51:21.806Z,86.19
2018-01-28T07:52:21.792Z,87.52
2018-01-28T07:53:21.778Z,86.10
2018-01-28T07:54:21.763Z,86.00
2018-01-28T07:55:21.748Z,85.43
2018-01-28T07:56:21.733Z,85.91
2018-01-28T07:57:21.724Z,85.91
2018-01-28T07:58:21.712Z,85.43
2018-01-28T07:59:21.693Z,85.53
2018-01-28T08:00:21.680Z,86.00
2018-01-28T08:01:21.666Z,87.66
2018-01-28T08:02:21.654Z,85.91
2018-01-28T08:03:21.638Z,85.95
2018-01-28T08:04:21.626Z,85.34
2018-01-28T08:05:21.612Z,84.67
2018-01-28T08:06:21.601Z,85.76
2018-01-28T08:07:21.585Z,85.86
2018-01-28T08:08:21.574Z,86.29
2018-01-28T08:09:21.559Z,86.61
2018-01-28T08:10:21.545Z,86.24
2018-01-28T08:11:21.532Z,85.38
2018-01-28T08:12:21.519Z,85.86
2018-01-28T08:13:21.511Z,85.57
2018-01-28T08:14:21.502Z,85.19
2018-01-28T08:15:21.480Z,85.38
2018-01-28T08:16:21.470Z,85.47
2018-01-28T08:17:21.451Z,85.38
2018-01-28T08:18:21.436Z,86.33
2018-01-28T08:19:21.479Z,86.24
2018-01-28T08:20:21.410Z,86.24
2018-01-28T08:21:21.405Z,85.66
2018-01-28T08:22:21.384Z,85.38
2018-01-28T08:23:21.371Z,85.57
2018-01-28T08:24:21.356Z,84.62
2018-01-28T08:25:21.349Z,87.09
2018-01-28T08:26:21.336Z,87.09
2018-01-28T08:27:21.321Z,85.10
2018-01-28T08:28:21.303Z,84.81
2018-01-28T08:29:21.294Z,84.72
2018-01-28T08:30:21.288Z,84.52
2018-01-28T08:31:21.264Z,85.10
2018-01-28T08:32:21.257Z,86.33
2018-01-28T08:33:21.239Z,85.28
2018-01-28T08:34:21.227Z,84.91
2018-01-28T08:35:21.213Z,86.52
2018-01-28T08:36:21.219Z,87.38
2018-01-28T08:37:21.187Z,85.95
2018-01-28T08:38:21.175Z,85.47
2018-01-28T08:39:21.166Z,85.28
2018-01-28T08:40:21.148Z,84.43
2018-01-28T08:41:21.137Z,85.14
2018-01-28T08:42:21.119Z,85.71
2018-01-28T08:43:21.107Z,84.00
2018-01-28T08:44:21.100Z,84.28
2018-01-28T08:45:21.085Z,82.76
2018-01-28T08:46:21.073Z,86.76
2018-01-28T08:47:21.060Z,83.62
2018-01-28T08:48:21.048Z,85.42
2018-01-28T08:49:21.031Z,87.04
2018-01-28T08:50:21.016Z,83.71
2018-01-28T08:51:21.005Z,83.33
2018-01-28T08:52:20.992Z,82.95
2018-01-28T08:53:20.984Z,83.04
2018-01-28T08:54:20.965Z,82.67
2018-01-28T08:55:20.960Z,82.57
2018-01-28T08:56:20.941Z,82.09
2018-01-28T08:57:20.928Z,83.81
2018-01-28T08:58:20.912Z,83.62
2018-01-28T08:59:20.898Z,82.28
2018-01-28T09:00:20.885Z,82.76
2018-01-28T09:01:20.875Z,81.43
2018-01-28T09:02:20.863Z,81.37
2018-01-28T09:03:20.853Z,83.75
2018-01-28T09:04:20.835Z,81.09
2018-01-28T09:05:20.829Z,80.52
2018-01-28T09:06:20.814Z,80.33
2018-01-28T09:07:20.802Z,80.71
2018-01-28T09:08:20.783Z,81.95
2018-01-28T09:09:20.770Z,81.56
2018-01-28T09:10:20.763Z,82.42
2018-01-28T09:11:20.751Z,82.04
2018-01-28T09:12:20.733Z,80.23
2018-01-28T09:13:20.725Z,79.47
2018-01-28T09:14:20.707Z,80.80
2018-01-28T09:15:20.694Z,80.99
2018-01-28T09:16:20.682Z,80.04
2018-01-28T09:17:20.676Z,82.32
2018-01-28T09:18:20.660Z,80.61
2018-01-28T09:19:20.646Z,79.75
2018-01-28T09:20:20.633Z,80.80
2018-01-28T09:21:20.621Z,80.71
2018-01-28T09:22:20.609Z,81.76
2018-01-28T09:23:20.596Z,81.09
2018-01-28T09:24:20.587Z,79.85
2018-01-28T09:25:20.576Z,80.42
2018-01-28T09:26:20.560Z,80.23
2018-01-28T09:27:20.549Z,80.80
2018-01-28T09:28:20.536Z,79.85
2018-01-28T09:29:20.527Z,79.66
2018-01-28T09:30:20.509Z,79.19
2018-01-28T09:31:20.500Z,79.66
2018-01-28T09:32:20.485Z,80.80
2018-01-28T09:33:20.474Z,80.13
2018-01-28T09:34:20.460Z,80.90
2018-01-28T09:35:20.449Z,80.04
2018-01-28T09:36:20.437Z,79.66
2018-01-28T09:37:20.424Z,79.28
2018-01-28T09:38:20.414Z,80.13
2018-01-28T09:39:20.401Z,79.38
2018-01-28T09:40:20.391Z,79.85
2018-01-28T09:41:20.382Z,81.66
2018-01-28T09:42:20.363Z,79.47
2018-01-28T09:43:20.357Z,78.99
2018-01-28T09:44:20.344Z,80.90
2018-01-28T09:45:20.325Z,78.99
2018-01-28T09:46:20.315Z,78.33
2018-01-28T09:47:20.304Z,77.80
2018-01-28T09:48:20.295Z,77.66
2018-01-28T09:49:20.280Z,77.70
2018-01-28T09:50:20.265Z,78.46
2018-01-28T09:51:20.259Z,79.99
2018-01-28T09:52:20.245Z,78.17
2018-01-28T09:53:20.238Z,77.32
2018-01-28T09:54:20.218Z,77.85
2018-01-28T09:55:20.208Z,78.75
2018-01-28T09:56:20.198Z,79.19
2018-01-28T09:57:20.186Z,78.94
2018-01-28T09:58:20.172Z,80.46
2018-01-28T09:59:20.162Z,79.13
2018-01-28T10:00:20.148Z,79.03
2018-01-28T10:01:20.141Z,78.17
2018-01-28T10:02:20.131Z,79.32
2018-01-28T10:03:20.114Z,77.61
2018-01-28T10:04:20.103Z,77.42
2018-01-28T10:05:20.088Z,78.08
2018-01-28T10:06:20.080Z,78.27
2018-01-28T10:07:20.065Z,76.94
2018-01-28T10:08:20.054Z,75.99
2018-01-28T10:09:20.050Z,80.08
2018-01-28T10:10:20.031Z,79.80
2018-01-28T10:11:20.018Z,78.85
2018-01-28T10:12:20.014Z,77.98
2018-01-28T10:13:19.998Z,76.37
2018-01-28T10:14:19.987Z,77.80
2018-01-28T10:15:19.972Z,78.65
2018-01-28T10:16:19.960Z,77.32
2018-01-28T10:17:19.961Z,78.08
2018-01-28T10:18:19.936Z,76.46
2018-01-28T10:19:19.928Z,76.18
2018-01-28T10:20:19.922Z,76.37
2018-01-28T10:21:19.903Z,75.79
2018-01-28T10:22:19.929Z,76.08
2018-01-28T10:23:19.879Z,76.08
2018-01-28T10:24:19.869Z,79.60
2018-01-28T10:25:19.854Z,78.37
2018-01-28T10:26:19.842Z,76.18
2018-01-28T10:27:19.836Z,78.46
2018-01-28T10:28:19.821Z,76.94
2018-01-28T10:29:19.807Z,76.21
2018-01-28T10:30:19.795Z,77.45
2018-01-28T10:31:19.785Z,77.26
2018-01-28T10:32:19.780Z,77.80
2018-01-28T10:33:19.769Z,76.56
2018-01-28T10:34:19.751Z,77.70
2018-01-28T10:35:19.740Z,77.83
2018-01-28T10:36:19.734Z,76.94
2018-01-28T10:37:19.724Z,78.03
2018-01-28T10:38:19.709Z,75.93
2018-01-28T10:39:19.694Z,75.84
2018-01-28T10:40:19.681Z,76.88
2018-01-28T10:41:19.673Z,75.84
2018-01-28T10:42:19.659Z,75.45
2018-01-28T10:43:19.661Z,77.83
2018-01-28T10:44:19.642Z,76.31
2018-01-28T10:45:19.623Z,76.03
2018-01-28T10:46:19.613Z,76.31
2018-01-28T10:47:19.601Z,75.55
2018-01-28T10:48:19.590Z,75.16
2018-01-28T10:49:19.582Z,77.17
2018-01-28T10:50:19.567Z,75.55
2018-01-28T10:51:19.559Z,73.74
2018-01-28T10:52:19.551Z,73.93
2018-01-28T10:53:19.537Z,74.73
2018-01-28T10:54:19.535Z,75.01
2018-01-28T10:55:19.518Z,74.12
2018-01-28T10:56:19.503Z,75.01
2018-01-28T10:57:19.493Z,75.49
2018-01-28T10:58:19.485Z,74.92
2018-01-28T10:59:19.471Z,74.25
2018-01-28T11:00:19.469Z,74.44
2018-01-28T11:01:19.447Z,73.96
2018-01-28T11:02:19.437Z,74.25
2018-01-28T11:03:19.575Z,74.06
2018-01-28T11:04:19.434Z,72.92
2018-01-28T11:05:19.410Z,72.92
2018-01-28T11:06:19.395Z,74.54
2018-01-28T11:07:19.388Z,74.92
2018-01-28T11:08:19.380Z,75.78
2018-01-28T11:09:19.363Z,74.16
2018-01-28T11:10:19.350Z,74.25
2018-01-28T11:11:19.340Z,74.82
2018-01-28T11:12:19.336Z,75.87
2018-01-28T11:13:19.317Z,73.87
2018-01-28T11:14:19.313Z,73.39
2018-01-28T11:15:19.305Z,73.39
2018-01-28T11:16:19.293Z,74.02
2018-01-28T11:17:19.282Z,74.79
2018-01-28T11:18:19.264Z,74.21
2018-01-28T11:19:19.263Z,74.50
2018-01-28T11:20:19.243Z,74.50
2018-01-28T11:21:19.231Z,74.40
2018-01-28T11:22:19.223Z,74.31
2018-01-28T11:23:19.216Z,74.50
2018-01-28T11:24:19.202Z,75.07
2018-01-28T11:25:19.199Z,75.07
2018-01-28T11:26:19.184Z,74.12
2018-01-28T11:27:19.167Z,74.21
2018-01-28T11:28:19.156Z,74.21
2018-01-28T11:29:19.154Z,73.83
2018-01-28T11:30:19.133Z,74.21
2018-01-28T11:31:19.125Z,74.40
2018-01-28T11:32:19.118Z,74.31
2018-01-28T11:33:19.101Z,74.25
2018-01-28T11:34:19.092Z,73.68
2018-01-28T11:35:19.080Z,73.49
2018-01-28T11:36:19.074Z,73.11
2018-01-28T11:37:19.061Z,74.92
2018-01-28T11:38:19.054Z,75.01
2018-01-28T11:39:19.050Z,72.06
2018-01-28T11:40:19.041Z,73.49
2018-01-28T11:41:19.028Z,75.78
2018-01-28T11:42:19.008Z,74.06
2018-01-28T11:43:18.998Z,74.82
2018-01-28T11:44:18.990Z,73.39
2018-01-28T11:45:18.987Z,73.30
2018-01-28T11:46:18.974Z,74.54
2018-01-28T11:47:18.956Z,74.25
2018-01-28T11:48:18.942Z,74.35
2018-01-28T11:49:18.930Z,72.82
2018-01-28T11:50:18.923Z,71.96
2018-01-28T11:51:18.926Z,73.11
2018-01-28T11:52:18.902Z,72.82
2018-01-28T11:53:18.889Z,72.72
2018-01-28T11:54:18.901Z,72.25
2018-01-28T11:55:18.876Z,72.06
2018-01-28T11:56:18.863Z,73.01
2018-01-28T11:57:18.852Z,72.06
2018-01-28T11:58:18.835Z,72.92
2018-01-28T11:59:18.827Z,72.16
2018-01-28T12:00:18.823Z,73.01
2018-01-28T12:01:18.815Z,73.11
2018-01-28T12:02:18.806Z,72.63
2018-01-28T12:03:18.782Z,72.82
2018-01-28T12:04:18.781Z,72.06
2018-01-28T12:05:18.767Z,71.30
2018-01-28T12:06:18.759Z,72.06
2018-01-28T12:07:18.746Z,71.96
2018-01-28T12:08:18.736Z,72.16
2018-01-28T12:09:18.717Z,73.11
2018-01-28T12:10:18.709Z,73.11
2018-01-28T12:11:18.699Z,73.11
2018-01-28T12:12:18.688Z,74.25
2018-01-28T12:13:18.677Z,72.16
2018-01-28T12:14:18.672Z,71.81
2018-01-28T12:15:18.659Z,73.05
2018-01-28T12:16:18.646Z,72.19
2018-01-28T12:17:18.634Z,71.91
2018-01-28T12:18:18.625Z,72.19
2018-01-28T12:19:18.615Z,71.23
2018-01-28T12:20:18.605Z,70.95
2018-01-28T12:21:18.592Z,70.67
2018-01-28T12:22:18.583Z,71.04
2018-01-28T12:23:18.578Z,72.00
2018-01-28T12:24:18.563Z,71.04
2018-01-28T12:25:18.554Z,71.33
2018-01-28T12:26:18.545Z,71.62
2018-01-28T12:27:18.534Z,72.00
2018-01-28T12:28:18.522Z,72.00
2018-01-28T12:29:18.510Z,71.43
2018-01-28T12:30:18.510Z,71.81
2018-01-28T12:31:18.498Z,71.04
2018-01-28T12:32:18.482Z,70.63
2018-01-28T12:33:18.475Z,71.11
2018-01-28T12:34:18.459Z,71.58
2018-01-28T12:35:18.455Z,71.77
2018-01-28T12:36:18.440Z,72.63
2018-01-28T12:37:18.434Z,72.25
2018-01-28T12:38:18.421Z,71.48
2018-01-28T12:39:18.413Z,71.68
2018-01-28T12:40:18.409Z,72.16
2018-01-28T12:41:18.393Z,71.96
2018-01-28T12:42:18.384Z,71.30
2018-01-28T12:43:18.369Z,70.19
2018-01-28T12:44:18.357Z,70.09
2018-01-28T12:45:18.345Z,71.81
2018-01-28T12:46:18.334Z,71.14
2018-01-28T12:47:18.332Z,71.43
2018-01-28T12:48:18.314Z,70.00
2018-01-28T12:49:18.304Z,69.43
2018-01-28T12:50:18.294Z,68.66
2018-01-28T12:51:18.284Z,69.33
2018-01-28T12:52:18.273Z,69.52